Time;durP1;ratioP1;P1;durP2;ratioP2;P2;SDS_P1;SDS_P2;PMS_P1;PMS_P2;Temp;Humidity;BMP_temperature;BMP_pressure;BME280_temperature;BME280_humidity;BME280_pressure;Samples;Min_cycle;Max_cycle;Signal;HPM_P1;HPM_P2
2021/07/05 00:02:06;;;;;;;2.25;0.80;;;;;;;18.35;83.05;95389.00;4935364;29;20297;-82
2021/07/05 00:04:32;;;;;;;0.80;0.80;;;;;;;18.29;82.03;95388.88;4936108;29;20202;-84
2021/07/05 00:06:59;;;;;;;1.55;0.88;;;;;;;18.28;81.31;95387.28;4936308;29;20235;-80
2021/07/05 00:09:27;;;;;;;1.27;1.00;;;;;;;18.25;81.61;95392.97;4936145;29;20226;-80
2021/07/05 00:11:53;;;;;;;0.95;0.80;;;;;;;18.19;81.53;95391.28;4935859;29;20406;-82
2021/07/05 00:14:20;;;;;;;0.90;0.68;;;;;;;18.19;81.45;95390.50;4935826;29;20201;-83
2021/07/05 00:16:46;;;;;;;1.10;0.80;;;;;;;18.29;81.65;95391.47;4935969;29;20225;-82
2021/07/05 00:19:13;;;;;;;1.35;0.95;;;;;;;18.32;81.12;95392.03;4935436;29;20601;-81
2021/07/05 00:21:40;;;;;;;0.90;0.80;;;;;;;18.35;80.96;95395.00;4935224;29;20217;-84
2021/07/05 00:24:07;;;;;;;2.83;0.60;;;;;;;18.28;80.40;95400.31;4935208;29;20274;-84
2021/07/05 00:26:35;;;;;;;0.70;0.70;;;;;;;18.27;80.40;95398.75;4935616;29;20274;-83
2021/07/05 00:29:04;;;;;;;1.70;0.85;;;;;;;18.29;80.84;95401.13;4934966;29;20229;-82
2021/07/05 00:31:30;;;;;;;1.58;0.80;;;;;;;18.30;80.40;95400.88;4935187;29;20205;-84
2021/07/05 00:33:57;;;;;;;1.02;0.73;;;;;;;18.32;79.86;95392.84;4935428;29;20284;-84
2021/07/05 00:36:23;;;;;;;1.00;0.80;;;;;;;18.31;79.81;95399.06;4935384;29;20240;-82
2021/07/05 00:38:50;;;;;;;0.77;0.73;;;;;;;18.28;80.13;95392.50;4934913;29;20233;-83
2021/07/05 00:41:17;;;;;;;4.35;0.85;;;;;;;18.23;80.12;95391.63;4935144;29;20224;-83
2021/07/05 00:43:45;;;;;;;0.70;0.70;;;;;;;18.13;79.35;95379.16;4935780;29;20210;-84
2021/07/05 00:46:11;;;;;;;0.98;0.90;;;;;;;18.15;80.26;95376.31;4935586;29;20209;-83
2021/07/05 00:48:38;;;;;;;1.27;0.80;;;;;;;18.13;80.18;95371.34;4935655;29;20221;-83
2021/07/05 00:51:04;;;;;;;1.38;0.90;;;;;;;18.18;79.88;95370.66;4934964;29;20297;-82
2021/07/05 00:53:31;;;;;;;2.22;1.00;;;;;;;18.20;79.73;95377.22;4935311;29;20744;-83
2021/07/05 00:55:57;;;;;;;1.25;0.90;;;;;;;18.18;80.00;95376.66;4934549;28;20244;-82
2021/07/05 00:58:24;;;;;;;1.95;0.80;;;;;;;18.17;80.17;95384.72;4935374;29;20248;-83
2021/07/05 01:00:52;;;;;;;1.67;0.82;;;;;;;18.18;79.92;95381.09;4935412;29;20672;-82
2021/07/05 01:03:18;;;;;;;2.75;1.00;;;;;;;18.18;79.84;95374.06;4935011;29;20201;-82
2021/07/05 01:05:45;;;;;;;1.67;0.80;;;;;;;18.17;79.50;95369.06;4935391;29;20209;-83
2021/07/05 01:08:12;;;;;;;1.95;0.80;;;;;;;18.20;79.40;95379.03;4935637;29;20853;-83
2021/07/05 01:10:38;;;;;;;2.22;1.00;;;;;;;18.15;79.82;95384.94;4935537;29;20206;-82
2021/07/05 01:13:05;;;;;;;0.80;0.80;;;;;;;18.11;79.75;95375.19;4935410;29;20273;-83
2021/07/05 01:15:33;;;;;;;0.85;0.75;;;;;;;18.12;80.07;95377.56;4936187;29;20225;-82
2021/07/05 01:18:05;;;;;;;1.00;1.00;;;;;;;18.09;79.88;95378.03;4935447;29;20221;-82
2021/07/05 01:20:34;;;;;;;0.80;0.80;;;;;;;18.13;79.93;95378.38;4935495;29;20205;-83
2021/07/05 01:23:02;;;;;;;1.10;1.00;;;;;;;18.06;80.38;95377.72;4935487;29;20202;-83
2021/07/05 01:25:33;;;;;;;1.02;0.80;;;;;;;18.05;81.23;95373.50;4934473;29;20209;-82
2021/07/05 01:28:00;;;;;;;1.67;0.90;;;;;;;18.09;80.04;95369.44;4935584;29;20229;-81
2021/07/05 01:30:28;;;;;;;1.08;0.93;;;;;;;17.99;81.34;95377.03;4934896;29;20208;-83
2021/07/05 01:32:56;;;;;;;1.38;0.90;;;;;;;18.00;80.73;95366.38;4935145;29;20209;-82
2021/07/05 01:35:23;;;;;;;1.10;1.00;;;;;;;18.01;80.60;95362.75;4934749;29;20206;-84
2021/07/05 01:37:49;;;;;;;2.85;1.08;;;;;;;18.03;80.70;95365.13;4935157;29;20292;-82
2021/07/05 01:40:18;;;;;;;1.50;1.05;;;;;;;18.10;80.63;95360.56;4935229;29;20205;-84
2021/07/05 01:42:49;;;;;;;1.23;1.00;;;;;;;18.12;80.48;95361.13;4935339;29;20225;-81
2021/07/05 01:45:17;;;;;;;1.90;1.00;;;;;;;18.05;80.81;95360.50;4935880;29;20208;-83
2021/07/05 01:47:43;;;;;;;1.95;1.00;;;;;;;18.12;80.62;95361.94;4934745;29;20209;-83
2021/07/05 01:50:11;;;;;;;2.20;1.27;;;;;;;18.16;80.88;95363.06;4935921;29;20228;-82
2021/07/05 01:52:37;;;;;;;2.25;1.00;;;;;;;18.05;81.37;95358.69;4935297;29;20227;-82
2021/07/05 01:55:05;;;;;;;2.25;1.10;;;;;;;18.05;81.70;95363.88;4936428;29;21018;-83
2021/07/05 01:57:34;;;;;;;0.80;0.80;;;;;;;18.12;81.10;95366.34;4935369;28;20237;-84
2021/07/05 02:00:07;;;;;;;1.02;1.02;;;;;;;18.09;81.27;95362.38;4935516;29;20201;-85
2021/07/05 02:02:34;;;;;;;3.22;0.90;;;;;;;18.10;81.15;95363.97;4936566;29;20209;-81
2021/07/05 02:05:00;;;;;;;1.20;1.10;;;;;;;18.09;81.12;95367.59;4919864;29;20213;-81
2021/07/05 02:07:27;;;;;;;0.88;0.88;;;;;;;18.14;81.31;95366.91;4930132;29;20873;-83
2021/07/05 02:09:53;;;;;;;3.88;1.20;;;;;;;18.12;82.43;95369.75;4938273;29;20255;-83
2021/07/05 02:12:19;;;;;;;1.13;1.02;;;;;;;18.10;82.17;95358.75;4938314;29;20209;-81
2021/07/05 02:14:47;;;;;;;2.05;0.90;;;;;;;18.11;82.55;95356.94;4937932;29;20205;-81
2021/07/05 02:17:14;;;;;;;0.90;0.90;;;;;;;18.09;82.05;95357.16;4938692;29;20230;-81
2021/07/05 02:19:41;;;;;;;1.10;1.00;;;;;;;18.12;82.17;95354.13;4938267;29;20241;-82
2021/07/05 02:22:09;;;;;;;1.10;0.93;;;;;;;18.10;82.92;95355.38;4938137;29;20209;-82
2021/07/05 02:24:36;;;;;;;2.75;1.20;;;;;;;18.15;82.09;95347.66;4938505;29;20541;-81
2021/07/05 02:27:03;;;;;;;1.20;1.10;;;;;;;18.20;81.90;95356.38;4938722;29;20269;-83
2021/07/05 02:29:30;;;;;;;1.27;1.10;;;;;;;18.23;81.62;95345.50;4938405;29;20225;-82
2021/07/05 02:31:58;;;;;;;1.10;1.00;;;;;;;18.25;81.15;95346.06;4936201;29;20201;-85
2021/07/05 02:34:24;;;;;;;3.42;1.10;;;;;;;18.26;81.15;95352.88;4938829;29;20201;-83
2021/07/05 02:36:51;;;;;;;1.00;1.00;;;;;;;18.23;82.13;95352.53;4938627;29;20733;-83
2021/07/05 02:39:18;;;;;;;1.60;0.90;;;;;;;18.13;82.20;95347.09;4938192;29;20253;-84
2021/07/05 02:41:45;;;;;;;1.40;0.93;;;;;;;18.13;82.18;95354.91;4937985;29;20210;-83
2021/07/05 02:44:12;;;;;;;1.60;1.10;;;;;;;18.15;81.72;95366.69;4938236;29;20202;-84
2021/07/05 02:46:38;;;;;;;0.90;0.90;;;;;;;18.14;81.79;95366.91;4937547;29;20204;-81
2021/07/05 02:49:06;;;;;;;3.28;1.15;;;;;;;18.17;81.67;95367.25;4937831;29;20232;-83
2021/07/05 02:51:33;;;;;;;1.58;1.00;;;;;;;18.13;82.43;95360.91;4937284;29;20216;-81
2021/07/05 02:53:59;;;;;;;1.00;0.90;;;;;;;18.15;82.07;95356.28;4937670;29;20217;-84
2021/07/05 02:56:26;;;;;;;2.25;1.10;;;;;;;18.18;82.32;95355.03;4937207;28;20233;-82
2021/07/05 02:58:52;;;;;;;1.80;1.13;;;;;;;18.15;82.82;95361.47;4937799;29;20236;-83
2021/07/05 03:01:19;;;;;;;1.25;1.20;;;;;;;18.15;82.45;95366.69;4937615;29;20205;-82
2021/07/05 03:03:46;;;;;;;1.40;1.30;;;;;;;18.15;82.83;95373.72;4938193;29;20197;-84
2021/07/05 03:06:13;;;;;;;1.10;1.00;;;;;;;18.19;82.48;95359.22;4937651;29;20291;-83
2021/07/05 03:08:40;;;;;;;1.70;1.50;;;;;;;18.20;81.68;95334.75;4937251;29;20230;-82
2021/07/05 03:11:08;;;;;;;1.77;1.05;;;;;;;18.06;83.45;95334.22;4937688;29;20207;-81
2021/07/05 03:13:35;;;;;;;12.95;1.30;;;;;;;18.07;83.73;95337.59;4936146;29;20197;-82
2021/07/05 03:16:01;;;;;;;1.35;1.25;;;;;;;18.04;84.22;95343.28;4937308;29;20232;-82
2021/07/05 03:18:28;;;;;;;1.17;1.17;;;;;;;18.07;83.74;95343.59;4937431;29;20235;-82
2021/07/05 03:20:55;;;;;;;1.10;1.00;;;;;;;18.11;83.47;95349.13;4937636;29;20674;-83
2021/07/05 03:23:25;;;;;;;1.48;1.10;;;;;;;18.11;83.16;95357.75;4937659;29;20212;-82
2021/07/05 03:25:51;;;;;;;2.05;1.48;;;;;;;18.09;83.35;95359.78;4937382;29;20237;-82
2021/07/05 03:28:19;;;;;;;1.95;1.30;;;;;;;18.02;83.69;95359.13;4937033;29;20234;-83
2021/07/05 03:30:54;;;;;;;12.13;10.95;;;;;;;18.06;83.23;95370.69;4937364;29;20276;-82
2021/07/05 03:33:21;;;;;;;15.13;12.55;;;;;;;18.06;82.44;95368.06;4937524;29;20220;-83
2021/07/05 03:35:49;;;;;;;4.65;4.20;;;;;;;18.07;82.55;95356.63;4938121;29;20206;-82
2021/07/05 03:38:18;;;;;;;3.20;1.70;;;;;;;17.90;84.81;95358.31;4937949;29;20257;-82
2021/07/05 03:40:47;;;;;;;1.60;1.50;;;;;;;17.84;85.12;95354.84;4937620;29;20209;-81
2021/07/05 03:43:15;;;;;;;1.40;1.30;;;;;;;17.90;84.02;95366.94;4938535;29;20205;-82
2021/07/05 03:45:41;;;;;;;1.42;1.33;;;;;;;17.93;83.28;95353.47;4937978;29;20848;-82
2021/07/05 03:48:09;;;;;;;1.40;1.30;;;;;;;17.94;83.04;95362.84;4937912;29;20734;-83
2021/07/05 03:50:37;;;;;;;1.42;1.20;;;;;;;17.99;82.33;95358.78;4938062;29;20248;-84
2021/07/05 03:53:04;;;;;;;2.05;1.30;;;;;;;17.99;81.63;95369.22;4937626;29;20249;-82
2021/07/05 03:55:31;;;;;;;1.73;1.38;;;;;;;18.05;81.52;95365.69;4937225;28;20202;-83
2021/07/05 03:57:59;;;;;;;3.53;1.55;;;;;;;18.01;81.36;95361.97;4937627;29;20229;-84
2021/07/05 04:00:29;;;;;;;1.73;1.40;;;;;;;18.00;81.04;95368.97;4937837;29;20197;-82
2021/07/05 04:02:56;;;;;;;2.70;1.10;;;;;;;18.01;80.98;95369.78;4937107;29;20613;-81
2021/07/05 04:05:22;;;;;;;2.05;1.10;;;;;;;18.00;80.76;95365.59;4938039;29;20198;-84
2021/07/05 04:07:49;;;;;;;1.85;1.10;;;;;;;18.02;80.58;95366.16;4937249;29;20217;-84
2021/07/05 04:10:17;;;;;;;1.45;1.35;;;;;;;17.99;81.37;95369.22;4937742;29;20221;-82
2021/07/05 04:12:43;;;;;;;1.13;1.13;;;;;;;18.05;81.46;95369.09;4936781;29;20229;-83
2021/07/05 04:15:13;;;;;;;1.80;1.20;;;;;;;18.08;80.97;95365.25;4937751;29;20584;-83
2021/07/05 04:17:39;;;;;;;1.27;1.17;;;;;;;18.04;80.73;95364.91;4937652;29;20230;-82
2021/07/05 04:20:09;;;;;;;1.45;1.20;;;;;;;18.04;80.25;95370.13;4937202;29;20216;-83
2021/07/05 04:22:35;;;;;;;3.28;1.40;;;;;;;18.09;80.03;95375.41;4935984;29;20324;-83
2021/07/05 04:25:04;;;;;;;2.55;1.25;;;;;;;18.10;79.58;95363.97;4936158;29;20202;-82
2021/07/05 04:27:30;;;;;;;1.23;1.13;;;;;;;18.16;79.47;95363.06;4936690;29;20284;-83
2021/07/05 04:30:00;;;;;;;1.33;1.27;;;;;;;18.13;79.84;95362.72;4936429;29;20230;-82
2021/07/05 04:32:28;;;;;;;1.40;1.30;;;;;;;18.18;80.41;95365.44;4936197;29;20213;-83
2021/07/05 04:34:56;;;;;;;3.13;1.15;;;;;;;18.16;81.79;95362.28;4937776;29;20209;-80
2021/07/05 04:37:23;;;;;;;1.02;1.02;;;;;;;18.21;79.59;95367.59;4936750;29;20252;-81
2021/07/05 04:39:50;;;;;;;4.72;1.30;;;;;;;18.26;78.96;95367.72;4936938;29;20222;-83
2021/07/05 04:42:17;;;;;;;1.00;1.00;;;;;;;18.30;78.62;95366.22;4934264;29;20673;-82
2021/07/05 04:44:45;;;;;;;1.60;1.10;;;;;;;18.38;78.06;95365.88;4934172;29;20237;-80
2021/07/05 04:47:12;;;;;;;1.80;1.20;;;;;;;18.48;78.03;95366.06;4932888;29;20212;-84
2021/07/05 04:49:40;;;;;;;1.10;1.00;;;;;;;18.51;77.53;95365.59;4935329;29;20273;-82
2021/07/05 04:52:06;;;;;;;1.55;1.30;;;;;;;18.51;78.41;95359.59;4935073;29;20214;-83
2021/07/05 04:54:33;;;;;;;3.40;1.15;;;;;;;18.58;77.71;95355.84;4935624;29;20202;-80
2021/07/05 04:57:00;;;;;;;1.58;1.13;;;;;;;18.63;77.20;95357.78;4935549;28;20229;-84
2021/07/05 04:59:26;;;;;;;1.52;1.30;;;;;;;18.67;76.46;95353.66;4936441;29;20225;-83
2021/07/05 05:01:53;;;;;;;1.38;1.27;;;;;;;18.73;75.61;95357.16;4934472;29;20201;-81
2021/07/05 05:04:20;;;;;;;2.20;1.52;;;;;;;18.76;76.43;95352.28;4936307;29;20216;-82
2021/07/05 05:06:48;;;;;;;2.05;1.20;;;;;;;18.76;75.81;95347.06;4934875;29;20835;-84
2021/07/05 05:09:15;;;;;;;1.13;1.02;;;;;;;18.78;75.37;95350.25;4936255;29;20225;-82
2021/07/05 05:11:42;;;;;;;1.35;1.25;;;;;;;18.86;75.11;95351.66;4935721;29;20678;-81
2021/07/05 05:14:09;;;;;;;1.20;1.10;;;;;;;18.82;75.44;95353.97;4936438;29;20210;-83
2021/07/05 05:16:35;;;;;;;1.35;1.08;;;;;;;18.91;74.56;95346.56;4935759;29;20202;-83
2021/07/05 05:19:02;;;;;;;2.25;1.27;;;;;;;18.88;74.03;95341.78;4935544;29;20236;-80
2021/07/05 05:21:31;;;;;;;1.67;1.30;;;;;;;19.01;74.01;95349.34;4935929;29;20205;-83
2021/07/05 05:23:59;;;;;;;1.63;1.10;;;;;;;19.01;73.86;95343.34;4935920;29;20225;-83
2021/07/05 05:26:26;;;;;;;1.48;0.93;;;;;;;19.10;72.49;95345.31;4936876;29;20269;-83
2021/07/05 05:28:53;;;;;;;1.20;1.10;;;;;;;19.14;72.62;95333.38;4937796;29;20228;-83
2021/07/05 05:31:20;;;;;;;1.50;1.00;;;;;;;19.18;73.08;95339.72;4937603;29;20590;-82
2021/07/05 05:33:46;;;;;;;1.10;1.00;;;;;;;19.13;73.39;95338.84;4936959;29;20285;-84
2021/07/05 05:36:13;;;;;;;1.50;1.08;;;;;;;19.21;72.40;95344.47;4939100;29;20205;-82
2021/07/05 05:38:45;;;;;;;1.25;1.10;;;;;;;19.20;72.72;95342.91;4942406;29;20229;-82
2021/07/05 05:41:13;;;;;;;1.60;1.00;;;;;;;19.28;72.84;95342.50;4940280;29;20202;-82
2021/07/05 05:43:40;;;;;;;1.13;1.02;;;;;;;19.42;72.17;95336.97;4940348;29;20269;-83
2021/07/05 05:46:07;;;;;;;1.33;1.00;;;;;;;19.36;72.69;95341.31;4941118;29;20216;-82
2021/07/05 05:48:33;;;;;;;1.02;1.02;;;;;;;19.21;72.47;95344.47;4941051;29;20221;-84
2021/07/05 05:51:00;;;;;;;2.13;1.17;;;;;;;19.29;72.87;95338.06;4941076;29;20213;-80
2021/07/05 05:53:27;;;;;;;1.98;1.17;;;;;;;19.42;72.46;95337.78;4940696;29;20215;-82
2021/07/05 05:55:53;;;;;;;0.95;0.95;;;;;;;19.50;72.08;95340.00;4940637;28;20705;-81
2021/07/05 05:58:21;;;;;;;2.45;1.00;;;;;;;19.65;71.71;95342.84;4940129;29;20229;-84
2021/07/05 06:00:48;;;;;;;1.33;1.23;;;;;;;19.72;71.34;95347.09;4940277;29;20229;-81
2021/07/05 06:03:14;;;;;;;2.60;1.05;;;;;;;19.79;71.30;95340.69;4940652;29;20587;-83
2021/07/05 06:05:41;;;;;;;1.35;1.25;;;;;;;19.90;71.30;95341.63;4940015;29;20205;-82
2021/07/05 06:08:07;;;;;;;1.80;1.05;;;;;;;19.89;70.75;95353.09;4939986;29;20597;-85
2021/07/05 06:10:34;;;;;;;0.82;0.82;;;;;;;19.88;69.65;95346.28;4939628;29;20216;-82
2021/07/05 06:13:01;;;;;;;1.77;0.90;;;;;;;19.87;68.03;95347.31;4939426;29;20233;-83
2021/07/05 06:15:29;;;;;;;0.90;0.90;;;;;;;19.88;69.57;95349.69;4939788;29;20455;-84
2021/07/05 06:17:56;;;;;;;0.90;0.90;;;;;;;19.83;68.25;95347.00;4940844;29;20231;-83
2021/07/05 06:20:31;;;;;;;1.98;0.95;;;;;;;19.73;68.36;95349.50;4940086;29;20253;-82
2021/07/05 06:22:58;;;;;;;1.08;1.00;;;;;;;19.82;69.59;95355.88;4941034;29;20789;-83
2021/07/05 06:25:28;;;;;;;2.75;1.02;;;;;;;19.86;69.88;95362.22;4940133;29;20207;-83
2021/07/05 06:27:54;;;;;;;1.13;1.00;;;;;;;19.97;69.43;95361.34;4941690;29;20209;-83
2021/07/05 06:30:21;;;;;;;3.88;1.02;;;;;;;20.10;69.86;95356.78;4942362;29;20907;-82
2021/07/05 06:32:48;;;;;;;1.63;1.08;;;;;;;20.22;69.32;95355.63;4940682;29;20205;-81
2021/07/05 06:35:17;;;;;;;2.20;1.10;;;;;;;20.32;68.97;95355.00;4934718;29;20209;-81
2021/07/05 06:37:43;;;;;;;1.50;1.20;;;;;;;20.43;68.36;95355.91;4938604;29;20648;-80
2021/07/05 06:40:15;;;;;;;1.02;0.90;;;;;;;20.51;68.20;95360.75;4937906;29;20209;-83
2021/07/05 06:42:44;;;;;;;1.95;1.10;;;;;;;20.58;68.64;95364.75;4938563;29;20218;-81
2021/07/05 06:45:11;;;;;;;1.10;1.00;;;;;;;20.63;68.13;95364.00;4938781;29;20202;-82
2021/07/05 06:47:46;;;;;;;1.15;1.05;;;;;;;20.62;66.47;95367.66;4936164;29;20306;-81
2021/07/05 06:50:14;;;;;;;1.00;1.00;;;;;;;20.61;67.57;95361.63;4937110;29;20661;-83
2021/07/05 06:52:40;;;;;;;1.98;1.25;;;;;;;20.66;66.75;95360.91;4938640;29;20239;-84
2021/07/05 06:55:08;;;;;;;1.77;0.90;;;;;;;20.73;66.29;95363.34;4938390;29;20272;-82
2021/07/05 06:57:34;;;;;;;2.40;1.00;;;;;;;20.74;65.76;95363.09;4937933;28;20237;-83
2021/07/05 07:00:05;;;;;;;2.67;0.90;;;;;;;20.82;66.44;95357.41;4939586;29;20292;-84
2021/07/05 07:02:33;;;;;;;1.45;1.15;;;;;;;20.92;65.86;95348.91;4937738;29;20212;-82
2021/07/05 07:04:59;;;;;;;1.70;0.90;;;;;;;20.94;64.63;95347.63;4937913;29;20689;-81
2021/07/05 07:07:27;;;;;;;1.20;1.10;;;;;;;20.94;63.40;95341.59;4937927;29;20205;-82
2021/07/05 07:09:53;;;;;;;1.35;1.00;;;;;;;20.91;64.47;95337.63;4938088;29;20229;-83
2021/07/05 07:12:20;;;;;;;0.90;0.90;;;;;;;20.90;62.46;95346.53;4938312;29;20212;-81
2021/07/05 07:14:46;;;;;;;1.00;1.00;;;;;;;20.88;62.83;95347.81;4938974;29;20592;-84
2021/07/05 07:17:20;;;;;;;1.00;1.00;;;;;;;20.94;63.58;95352.84;4938676;29;20580;-82
2021/07/05 07:19:46;;;;;;;1.08;0.98;;;;;;;21.04;62.99;95349.53;4938772;29;20221;-84
2021/07/05 07:22:13;;;;;;;1.30;1.08;;;;;;;21.08;63.19;95355.84;4938140;29;20716;-84
2021/07/05 07:24:41;;;;;;;1.83;0.90;;;;;;;21.20;62.91;95351.28;4937226;29;20209;-83
2021/07/05 07:27:07;;;;;;;1.00;1.00;;;;;;;21.26;63.48;95344.25;4938138;29;20269;-82
2021/07/05 07:29:34;;;;;;;1.40;1.30;;;;;;;21.24;63.24;95336.66;4937863;29;20237;-83
2021/07/05 07:32:00;;;;;;;2.60;1.30;;;;;;;21.27;62.40;95336.16;4937635;29;20750;-82
2021/07/05 07:34:27;;;;;;;2.85;1.23;;;;;;;21.31;62.35;95337.25;4937794;29;20208;-82
2021/07/05 07:36:55;;;;;;;2.15;0.98;;;;;;;21.30;62.89;95338.28;4938335;29;20209;-84
2021/07/05 07:39:26;;;;;;;1.98;1.05;;;;;;;21.43;62.89;95341.50;4937884;29;20229;-84
2021/07/05 07:41:54;;;;;;;4.57;1.20;;;;;;;21.50;61.63;95337.66;4938181;29;20690;-84
2021/07/05 07:44:20;;;;;;;1.80;1.00;;;;;;;21.57;61.64;95335.59;4937197;29;20744;-82
2021/07/05 07:46:47;;;;;;;1.10;1.05;;;;;;;21.54;60.15;95325.63;4936906;29;20213;-83
2021/07/05 07:49:14;;;;;;;1.30;1.20;;;;;;;21.56;61.11;95325.38;4938729;29;20217;-86
2021/07/05 07:51:40;;;;;;;3.67;1.40;;;;;;;21.62;61.71;95327.78;4938074;29;20210;-86
2021/07/05 07:54:07;;;;;;;1.13;1.05;;;;;;;21.74;60.70;95329.44;4937461;29;20216;-84
2021/07/05 07:56:34;;;;;;;1.30;1.20;;;;;;;21.77;61.01;95319.22;4937811;28;20240;-85
2021/07/05 07:59:03;;;;;;;1.83;1.10;;;;;;;21.77;61.44;95326.28;4937179;29;20273;-85
2021/07/05 08:01:30;;;;;;;3.95;1.80;;;;;;;21.82;60.87;95327.13;4937026;29;20213;-86
2021/07/05 08:03:57;;;;;;;1.77;1.27;;;;;;;21.93;60.14;95323.53;4938232;29;20205;-85
2021/07/05 08:06:24;;;;;;;3.80;1.77;;;;;;;22.03;60.18;95335.94;4937447;29;20219;-85
2021/07/05 08:08:52;;;;;;;1.88;1.13;;;;;;;22.04;58.26;95317.31;4937665;29;20633;-84
2021/07/05 08:11:19;;;;;;;1.42;1.10;;;;;;;22.01;58.71;95319.66;4936970;29;20205;-84
2021/07/05 08:13:46;;;;;;;2.35;1.15;;;;;;;22.10;59.23;95317.34;4936731;29;20220;-84
2021/07/05 08:16:14;;;;;;;2.78;1.67;;;;;;;22.22;59.86;95312.69;4936217;29;20202;-85
2021/07/05 08:18:40;;;;;;;1.75;1.52;;;;;;;22.22;59.03;95325.78;4937312;29;20762;-84
2021/07/05 08:21:07;;;;;;;1.92;1.10;;;;;;;22.28;59.17;95316.91;4936463;29;20210;-85
2021/07/05 08:23:34;;;;;;;1.40;1.30;;;;;;;22.39;59.70;95319.31;4937417;29;20209;-85
2021/07/05 08:26:02;;;;;;;1.23;1.10;;;;;;;22.53;58.89;95324.06;4936974;29;20213;-82
2021/07/05 08:28:29;;;;;;;2.97;1.25;;;;;;;22.69;57.66;95317.84;4936112;29;20222;-82
2021/07/05 08:30:57;;;;;;;1.88;1.20;;;;;;;22.85;58.32;95306.34;4934688;29;20733;-82
2021/07/05 08:33:27;;;;;;;1.15;1.15;;;;;;;22.93;56.76;95305.81;4936145;29;20277;-83
2021/07/05 08:35:54;;;;;;;1.95;0.95;;;;;;;22.92;56.19;95300.84;4936180;29;20209;-84
2021/07/05 08:38:20;;;;;;;1.33;1.10;;;;;;;22.78;56.06;95307.63;4936866;29;20268;-83
2021/07/05 08:40:47;;;;;;;1.17;1.00;;;;;;;22.69;55.14;95315.22;4935535;29;20201;-84
2021/07/05 08:43:14;;;;;;;1.30;1.17;;;;;;;22.80;56.51;95310.78;4935778;29;20206;-83
2021/07/05 08:45:43;;;;;;;1.35;1.10;;;;;;;22.80;56.46;95318.69;4937293;29;20205;-82
2021/07/05 08:48:11;;;;;;;2.35;1.02;;;;;;;22.68;56.22;95303.94;4936484;29;20249;-83
2021/07/05 08:50:40;;;;;;;1.55;1.17;;;;;;;22.80;55.67;95306.34;4936064;29;20305;-83
2021/07/05 08:53:07;;;;;;;1.63;1.00;;;;;;;22.79;55.43;95310.00;4935958;29;20234;-84
2021/07/05 08:55:36;;;;;;;1.80;1.15;;;;;;;22.84;56.66;95312.66;4935737;28;20209;-82
2021/07/05 08:58:11;;;;;;;4.18;1.25;;;;;;;22.90;55.90;95308.97;4935622;29;20233;-82
2021/07/05 09:00:38;;;;;;;1.63;1.00;;;;;;;22.91;55.48;95305.28;4935360;29;20203;-80
2021/07/05 09:03:04;;;;;;;3.58;0.95;;;;;;;23.01;56.59;95313.19;4934354;29;20205;-83
2021/07/05 09:05:31;;;;;;;1.23;1.05;;;;;;;22.91;56.07;95313.16;4935633;29;20212;-83
2021/07/05 09:08:02;;;;;;;2.25;1.10;;;;;;;22.85;56.43;95316.06;4936188;29;20206;-84
2021/07/05 09:10:39;;;;;;;8.00;4.97;;;;;;;22.82;56.95;95311.31;4935467;29;20201;-84
2021/07/05 09:13:08;;;;;;;4.80;4.30;;;;;;;22.76;56.95;95310.50;4934842;29;20205;-83
2021/07/05 09:15:40;;;;;;;5.95;2.72;;;;;;;22.79;57.89;95322.34;4936238;29;20201;-84
2021/07/05 09:18:27;;;;;;;2.55;1.35;;;;;;;22.83;56.18;95320.78;4935305;29;20236;-84
2021/07/05 09:20:57;;;;;;;0.93;0.90;;;;;;;22.75;55.92;95304.44;4934735;29;20688;-83
2021/07/05 09:23:26;;;;;;;1.83;1.05;;;;;;;22.83;55.53;95307.66;4935915;29;20208;-83
2021/07/05 09:25:53;;;;;;;3.08;1.00;;;;;;;22.92;56.45;95303.47;4934935;29;20204;-83
2021/07/05 09:28:25;;;;;;;1.38;0.98;;;;;;;23.05;56.34;95302.97;4935754;29;20232;-84
2021/07/05 09:30:54;;;;;;;1.10;1.00;;;;;;;23.14;54.83;95293.50;4935678;29;20206;-81
2021/07/05 09:33:23;;;;;;;2.08;1.10;;;;;;;23.14;54.58;95304.00;4934646;29;20249;-84
2021/07/05 09:35:52;;;;;;;1.88;1.50;;;;;;;23.19;55.97;95305.84;4935493;29;20201;-83
2021/07/05 09:38:35;;;;;;;12.13;11.13;;;;;;;23.25;55.81;95302.97;4934675;29;20221;-82
2021/07/05 09:41:18;;;;;;;2.05;1.80;;;;;;;23.31;57.59;95299.28;4934511;29;20212;-82
2021/07/05 09:43:54;;;;;;;1.50;1.10;;;;;;;23.27;54.97;95298.25;4935012;29;20205;-82
2021/07/05 09:46:35;;;;;;;2.35;1.15;;;;;;;23.24;57.35;95295.34;4934844;29;20608;-84
2021/07/05 09:49:10;;;;;;;1.23;1.15;;;;;;;23.31;57.43;95301.13;4935665;29;20637;-82
2021/07/05 09:51:39;;;;;;;1.35;1.25;;;;;;;23.45;56.44;95309.28;4935237;29;20700;-84
2021/07/05 09:54:07;;;;;;;5.70;5.20;;;;;;;23.42;55.40;95302.72;4935846;29;20293;-84
2021/07/05 09:56:36;;;;;;;9.60;8.70;;;;;;;23.42;56.05;95308.75;4935186;28;20229;-83
2021/07/05 09:59:16;;;;;;;2.65;2.45;;;;;;;23.36;56.57;95299.28;4935390;29;20234;-83
2021/07/05 10:01:44;;;;;;;1.95;1.30;;;;;;;23.37;55.20;95308.75;4935255;29;20205;-82
2021/07/05 10:04:22;;;;;;;2.17;1.10;;;;;;;23.34;54.58;95304.00;4935082;29;20248;-84
2021/07/05 10:06:49;;;;;;;3.33;1.20;;;;;;;23.47;55.09;95307.19;4936514;29;20300;-84
2021/07/05 10:09:21;;;;;;;3.42;1.27;;;;;;;23.60;55.72;95306.66;4935487;29;20312;-83
2021/07/05 10:11:47;;;;;;;3.90;1.10;;;;;;;23.67;54.84;95299.28;4935467;29;20297;-82
2021/07/05 10:14:20;;;;;;;2.85;1.25;;;;;;;23.81;55.10;95300.31;4935470;29;20198;-83
2021/07/05 10:16:49;;;;;;;2.15;1.40;;;;;;;24.08;54.76;95310.50;4935049;29;20241;-82
2021/07/05 10:19:16;;;;;;;4.68;1.40;;;;;;;24.23;52.31;95302.59;4934998;29;20684;-81
2021/07/05 10:21:45;;;;;;;0.98;0.90;;;;;;;24.28;51.02;95301.78;4935383;29;20741;-83
2021/07/05 10:24:12;;;;;;;1.10;0.98;;;;;;;24.24;50.53;95304.19;4937358;29;20201;-83
2021/07/05 10:26:46;;;;;;;1.88;1.00;;;;;;;24.10;50.42;95300.50;4938783;29;20201;-83
2021/07/05 10:29:13;;;;;;;2.38;1.10;;;;;;;24.22;50.75;95305.47;4938663;29;20236;-83
2021/07/05 10:31:41;;;;;;;1.33;1.13;;;;;;;24.26;48.98;95302.03;4937677;29;20216;-82
2021/07/05 10:34:07;;;;;;;3.55;1.58;;;;;;;24.19;51.22;95306.78;4939009;29;20217;-83
2021/07/05 10:36:41;;;;;;;1.42;1.13;;;;;;;24.16;50.86;95309.16;4938875;29;20312;-81
2021/07/05 10:39:10;;;;;;;0.98;0.98;;;;;;;24.05;49.38;95311.06;4937591;29;20237;-83
2021/07/05 10:41:39;;;;;;;2.05;1.20;;;;;;;24.05;50.47;95311.81;4937373;29;20268;-82
2021/07/05 10:44:20;;;;;;;3.90;3.50;;;;;;;24.11;51.05;95313.38;4937901;29;20726;-82
2021/07/05 10:46:49;;;;;;;3.33;3.03;;;;;;;24.09;50.20;95323.38;4937347;29;20209;-81
2021/07/05 10:49:46;;;;;;;1.42;1.17;;;;;;;23.88;50.11;95321.84;4937914;29;20713;-82
2021/07/05 10:52:19;;;;;;;1.05;0.95;;;;;;;23.75;51.33;95317.94;4938364;29;20254;-82
2021/07/05 10:54:48;;;;;;;1.02;1.00;;;;;;;23.82;52.13;95317.69;4939451;29;20230;-85
2021/07/05 10:57:20;;;;;;;2.13;1.10;;;;;;;23.84;54.99;95318.22;4939035;28;20256;-84
2021/07/05 10:59:49;;;;;;;0.90;0.90;;;;;;;24.03;54.24;95313.94;4939281;29;20249;-84
2021/07/05 11:02:42;;;;;;;4.35;1.27;;;;;;;24.18;53.37;95312.31;4938625;29;20905;-84
2021/07/05 11:05:29;;;;;;;1.60;0.90;;;;;;;24.28;52.72;95310.47;4938600;29;20245;-82
2021/07/05 11:07:56;;;;;;;2.58;0.80;;;;;;;24.37;52.15;95316.75;4938646;29;20201;-83
2021/07/05 11:10:30;;;;;;;1.25;1.00;;;;;;;24.33;52.01;95309.66;4938394;29;20206;-84
2021/07/05 11:12:59;;;;;;;1.20;1.10;;;;;;;24.28;50.56;95315.72;4938071;29;20197;-83
2021/07/05 11:15:53;;;;;;;2.40;1.45;;;;;;;24.17;50.05;95314.16;4938506;29;20233;-84
2021/07/05 11:19:06;;;;;;;2.97;1.50;;;;;;;24.17;52.11;95311.53;4938822;29;20225;-83
2021/07/05 11:22:09;;;;;;;3.65;1.30;;;;;;;24.20;52.50;95315.47;4937853;29;20240;-84
2021/07/05 11:24:43;;;;;;;1.92;1.02;;;;;;;24.19;51.63;95319.94;4938220;29;20215;-83
2021/07/05 11:27:46;;;;;;;1.02;1.02;;;;;;;24.20;50.42;95308.38;4938941;28;20669;-83
2021/07/05 11:30:31;;;;;;;2.97;1.05;;;;;;;24.31;53.22;95307.28;4938273;29;20208;-83
2021/07/05 11:33:19;;;;;;;1.00;1.00;;;;;;;24.43;53.39;95307.00;4938076;29;20209;-83
2021/07/05 11:35:49;;;;;;;1.08;1.08;;;;;;;24.41;52.72;95309.91;4937358;29;20201;-83
2021/07/05 11:38:29;;;;;;;1.17;1.08;;;;;;;24.24;51.54;95291.03;4937417;29;20660;-84
2021/07/05 11:40:59;;;;;;;3.50;1.20;;;;;;;24.31;52.95;95291.50;4937299;29;20700;-84
2021/07/05 11:43:53;;;;;;;1.00;0.90;;;;;;;24.30;52.77;95292.56;4937862;29;20210;-82